DAUU/OGX METAR and TAF weather

Enter ICAO airport designator
Station Type Date Time Source
DAUU METAR 2018/06/25 02:00 UTC NOAA

DAUU 250200Z 15007KT 9999 SCT040 32/08 Q1009


Station Type Date Time Source
DAUU Decoded METAR 2018/06/25 02:00 UTC NOAA

Ouargla, Algeria (DAUU) 31-55N 005-24E 141M
Jun 24, 2018 - 10:00 PM EDT / 2018.06.25 0200 UTC
Wind: from the SSE (150 degrees) at 8 MPH (7 KT):0
Visibility: greater than 7 mile(s):0
Sky conditions: partly cloudy
Temperature: 89 F (32 C)
Dew Point: 46 F (8 C)
Relative Humidity: 22%
Pressure (altimeter): 29.80 in. Hg (1009 hPa)
ob: DAUU 250200Z 15007KT 9999 SCT040 32/08 Q1009
cycle: 2

Station Type Date Time Source
DAUU TAF 2017/11/09 18:03 UTC NOAA

TAF DAUU 091700Z 0918/1009 34012KT 9999 FEW040 SCT100 PROB40
TEMPO 0918/0924 34015G25KT 5000 -TSRA FEW036CB


Example: see airport list